Time;durP1;ratioP1;P1;durP2;ratioP2;P2;SDS_P1;SDS_P2;PMS_P1;PMS_P2;Temp;Humidity;BMP_temperature;BMP_pressure;BME280_temperature;BME280_humidity;BME280_pressure;Samples;Min_cycle;Max_cycle;Signal;HPM_P1;HPM_P2
2023/09/12 00:01:49;;;;;;;;;5.75;4.75;;;;;-146.67;100.00;57155.34;5124825;28;8797;-78
2023/09/12 00:04:14;;;;;;;;;5.25;4.25;;;;;-146.67;100.00;57155.34;5125028;27;8824;-78
2023/09/12 00:06:39;;;;;;;;;10.50;6.00;;;;;-146.67;100.00;57155.34;5124925;28;9504;-78
2023/09/12 00:09:08;;;;;;;;;8.00;4.00;;;;;-146.67;100.00;57155.34;5124574;28;8895;-78
2023/09/12 00:11:34;;;;;;;;;5.75;5.25;;;;;-146.67;100.00;57155.34;5125010;28;8733;-78
2023/09/12 00:13:59;;;;;;;;;6.50;6.50;;;;;-146.67;100.00;57155.34;5123852;28;9665;-78
2023/09/12 00:16:25;;;;;;;;;6.75;6.75;;;;;-146.67;100.00;57155.34;5123145;28;10285;-78
2023/09/12 00:18:50;;;;;;;;;6.75;5.75;;;;;-146.67;100.00;57155.34;5125019;28;9558;-78
2023/09/12 00:21:15;;;;;;;;;7.67;7.67;;;;;-146.67;100.00;57155.34;5124584;28;8870;-78
2023/09/12 00:23:41;;;;;;;;;4.00;4.00;;;;;-146.67;100.00;57155.34;5124798;28;8777;-78
2023/09/12 00:26:06;;;;;;;;;8.50;6.75;;;;;-146.67;100.00;57155.34;5123435;28;8803;-78
2023/09/12 00:28:34;;;;;;;;;8.33;6.33;;;;;-146.67;100.00;57155.34;5122380;28;8804;-78
2023/09/12 00:30:59;;;;;;;;;8.00;8.00;;;;;-146.67;100.00;57155.34;5124214;28;8785;-78
2023/09/12 00:33:24;;;;;;;;;9.00;7.75;;;;;-146.67;100.00;57155.34;5106004;28;10451;-78
2023/09/12 00:35:50;;;;;;;;;7.50;6.50;;;;;-146.67;100.00;57155.34;5105973;28;10285;-78
2023/09/12 00:38:15;;;;;;;;;10.00;8.33;;;;;-146.67;100.00;57155.34;5124507;28;8789;-77
2023/09/12 00:40:41;;;;;;;;;8.25;6.50;;;;;-146.67;100.00;57155.34;5124532;28;8799;-78
2023/09/12 00:43:06;;;;;;;;;9.75;9.75;;;;;-146.67;100.00;57155.34;5122071;28;8837;-78
2023/09/12 00:45:32;;;;;;;;;7.50;7.50;;;;;-146.67;100.00;57155.34;5105900;28;10007;-78
2023/09/12 00:48:00;;;;;;;;;9.50;8.25;;;;;-146.67;100.00;57155.34;5124196;28;8821;-78
2023/09/12 00:50:26;;;;;;;;;8.00;6.50;;;;;-146.67;100.00;57155.34;5123657;28;8883;-78
2023/09/12 00:52:53;;;;;;;;;9.00;6.00;;;;;-146.67;100.00;57155.34;5123000;27;9786;-78
2023/09/12 00:55:19;;;;;;;;;8.33;7.00;;;;;-146.67;100.00;57155.34;5121825;28;10133;-78
2023/09/12 00:57:45;;;;;;;;;8.75;8.25;;;;;-146.67;100.00;57155.34;5123545;28;9503;-78
2023/09/12 01:00:12;;;;;;;;;9.75;7.25;;;;;-146.67;100.00;57155.34;5123534;28;8784;-78
2023/09/12 01:02:39;;;;;;;;;7.75;7.75;;;;;-146.67;100.00;57155.34;5122997;28;9696;-78
2023/09/12 01:05:07;;;;;;;;;10.00;9.75;;;;;-146.67;100.00;57155.34;5122625;28;10682;-78
2023/09/12 01:07:33;;;;;;;;;9.50;9.00;;;;;-146.67;100.00;57155.34;5122681;28;9774;-78
2023/09/12 01:09:59;;;;;;;;;8.25;8.25;;;;;-146.67;100.00;57155.34;5122274;28;9784;-78
2023/09/12 01:12:24;;;;;;;;;10.75;8.00;;;;;-146.67;100.00;57155.34;5121945;28;9799;-78
2023/09/12 01:14:50;;;;;;;;;9.75;9.00;;;;;-146.67;100.00;57155.34;5123146;28;8777;-78
2023/09/12 01:17:15;;;;;;;;;13.00;10.50;;;;;-146.67;100.00;57155.34;5104809;28;8820;-78
2023/09/12 01:19:41;;;;;;;;;12.00;11.75;;;;;-146.67;100.00;57155.34;5123551;28;8781;-78
2023/09/12 01:22:21;;;;;;;;;13.75;12.00;;;;;-146.67;100.00;57155.34;5123641;28;8801;-78
2023/09/12 01:25:05;;;;;;;;;10.25;10.00;;;;;-146.67;100.00;57155.34;5123035;28;8784;-78
2023/09/12 01:27:35;;;;;;;;;19.75;14.25;;;;;-146.67;100.00;57155.34;5084274;28;9885;-78
2023/09/12 01:30:06;;;;;;;;;16.75;11.75;;;;;-146.67;100.00;57155.34;5102991;28;10027;-78
2023/09/12 01:32:32;;;;;;;;;16.25;12.00;;;;;-146.67;100.00;57155.34;5102510;28;10020;-78
2023/09/12 01:34:58;;;;;;;;;11.75;10.75;;;;;-146.67;100.00;57155.34;5103052;28;10388;-78
2023/09/12 01:37:23;;;;;;;;;11.50;10.75;;;;;-146.67;100.00;57155.34;5103120;28;9846;-78
2023/09/12 01:39:49;;;;;;;;;12.75;11.00;;;;;-146.67;100.00;57155.34;5102172;28;8880;-78
2023/09/12 01:42:20;;;;;;;;;11.25;11.00;;;;;-146.67;100.00;57155.34;5102334;28;8798;-78
2023/09/12 01:44:49;;;;;;;;;15.50;12.50;;;;;-146.67;100.00;57155.34;5102663;28;8864;-78
2023/09/12 01:47:17;;;;;;;;;14.00;14.00;;;;;-146.67;100.00;57155.34;5084530;28;10249;-78
2023/09/12 01:49:47;;;;;;;;;15.25;9.75;;;;;-146.67;100.00;57155.34;5102458;28;10073;-78
2023/09/12 01:52:13;;;;;;;;;18.75;12.25;;;;;-146.67;100.00;57155.34;5084404;28;10883;-78
2023/09/12 01:54:42;;;;;;;;;19.00;15.00;;;;;-146.67;100.00;57155.34;5100999;28;10216;-78
2023/09/12 01:57:08;;;;;;;;;15.25;12.00;;;;;-146.67;100.00;57155.34;5102412;28;10020;-78
2023/09/12 01:59:33;;;;;;;;;14.50;12.75;;;;;-146.67;100.00;57155.34;5102698;28;10061;-78
2023/09/12 02:01:59;;;;;;;;;18.25;12.25;;;;;-146.67;100.00;57155.34;5102539;28;10127;-78
2023/09/12 02:04:24;;;;;;;;;17.75;14.75;;;;;-146.67;100.00;57155.34;5102676;28;9103;-78
2023/09/12 02:06:50;;;;;;;;;16.50;13.50;;;;;-146.67;100.00;57155.34;5083986;28;8913;-78
2023/09/12 02:09:15;;;;;;;;;17.25;15.00;;;;;-146.67;100.00;57155.34;5093489;28;9423;-78
2023/09/12 02:11:41;;;;;;;;;14.00;13.25;;;;;-146.67;100.00;57155.34;5122666;28;8808;-78
2023/09/12 02:14:06;;;;;;;;;13.75;12.00;;;;;-146.67;100.00;57155.34;5122499;28;8803;-78
2023/09/12 02:16:31;;;;;;;;;13.50;13.50;;;;;-146.67;100.00;57155.34;5122751;28;8855;-78
2023/09/12 02:18:57;;;;;;;;;14.25;14.25;;;;;-146.67;100.00;57155.34;5122458;28;8821;-78
2023/09/12 02:21:22;;;;;;;;;15.50;12.25;;;;;-146.67;100.00;57155.34;5122906;28;8866;-78
2023/09/12 02:23:47;;;;;;;;;14.75;11.75;;;;;-146.67;100.00;57155.34;5121999;28;9486;-78
2023/09/12 02:26:13;;;;;;;;;13.75;13.75;;;;;-146.67;100.00;57155.34;5113919;27;8896;-78
2023/09/12 02:28:38;;;;;;;;;14.75;13.25;;;;;-146.67;100.00;57155.34;5142710;27;8895;-78
2023/09/12 02:31:09;;;;;;;;;11.50;10.75;;;;;-146.67;100.00;57155.34;5104073;28;9010;-78
2023/09/12 02:33:35;;;;;;;;;10.50;10.25;;;;;-146.67;100.00;57155.34;5104042;28;10336;-78
2023/09/12 02:36:00;;;;;;;;;11.25;11.00;;;;;-146.67;100.00;57155.34;5122117;28;9876;-78
2023/09/12 02:38:25;;;;;;;;;10.50;8.25;;;;;-146.67;100.00;57155.34;5103767;28;9574;-77
2023/09/12 02:40:51;;;;;;;;;13.75;12.75;;;;;-146.67;100.00;57155.34;5122495;28;8862;-78
2023/09/12 02:43:16;;;;;;;;;17.00;13.25;;;;;-146.67;100.00;57155.34;5103770;28;10244;-78
2023/09/12 02:45:42;;;;;;;;;11.00;11.00;;;;;-146.67;100.00;57155.34;5104015;28;8804;-78
2023/09/12 02:48:07;;;;;;;;;11.75;8.50;;;;;-146.67;100.00;57155.34;5103822;28;8808;-77
2023/09/12 02:50:33;;;;;;;;;13.00;11.50;;;;;-146.67;100.00;57155.34;5122555;28;8812;-78
2023/09/12 02:52:58;;;;;;;;;10.00;10.00;;;;;-146.67;100.00;57155.34;5103560;28;10134;-78
2023/09/12 02:55:24;;;;;;;;;12.50;11.00;;;;;-146.67;100.00;57155.34;5098209;28;8916;-78
2023/09/12 02:57:49;;;;;;;;;13.25;11.25;;;;;-146.67;100.00;57155.34;5120167;28;8854;-78
2023/09/12 03:00:14;;;;;;;;;13.50;10.25;;;;;-146.67;100.00;57155.34;5122004;28;8772;-78
2023/09/12 03:02:40;;;;;;;;;10.50;9.00;;;;;-146.67;100.00;57155.34;5122429;28;8807;-78
2023/09/12 03:05:05;;;;;;;;;15.00;12.50;;;;;-146.67;100.00;57155.34;5121899;28;8811;-78
2023/09/12 03:07:31;;;;;;;;;14.25;11.00;;;;;-146.67;100.00;57155.34;5124920;28;8883;-77
2023/09/12 03:09:56;;;;;;;;;14.75;11.25;;;;;-146.67;100.00;57155.34;5125602;28;8811;-78
2023/09/12 03:12:22;;;;;;;;;9.00;7.00;;;;;-146.67;100.00;57155.34;5106578;28;9920;-78
2023/09/12 03:14:47;;;;;;;;;12.00;10.75;;;;;-146.67;100.00;57155.34;5125850;28;8801;-77
2023/09/12 03:17:13;;;;;;;;;14.00;11.75;;;;;-146.67;100.00;57155.34;5103452;28;8798;-78
2023/09/12 03:19:38;;;;;;;;;10.50;9.00;;;;;-146.67;100.00;57155.34;5104306;28;8802;-78
2023/09/12 03:22:04;;;;;;;;;12.50;11.75;;;;;-146.67;100.00;57155.34;5125198;28;10095;-78
2023/09/12 03:24:30;;;;;;;;;13.25;9.25;;;;;-146.67;100.00;57155.34;5124705;28;8800;-77
2023/09/12 03:26:56;;;;;;;;;13.50;9.75;;;;;-146.67;100.00;57155.34;5125160;28;8912;-78
2023/09/12 03:29:21;;;;;;;;;12.25;11.50;;;;;-146.67;100.00;57155.34;5124701;28;9901;-78
2023/09/12 03:31:47;;;;;;;;;12.75;11.25;;;;;-146.67;100.00;57155.34;5125135;28;8807;-78
2023/09/12 03:34:12;;;;;;;;;19.00;14.50;;;;;-146.67;100.00;57155.34;5125423;28;8789;-78
2023/09/12 03:36:37;;;;;;;;;12.75;12.25;;;;;-146.67;100.00;57155.34;5124853;28;8773;-77
2023/09/12 03:39:05;;;;;;;;;16.25;12.75;;;;;-146.67;100.00;57155.34;5125235;28;8877;-78
2023/09/12 03:41:31;;;;;;;;;13.50;11.50;;;;;-146.67;100.00;57155.34;5125028;28;8720;-78
2023/09/12 03:43:56;;;;;;;;;14.75;13.00;;;;;-146.67;100.00;57155.34;5125219;28;10020;-78
2023/09/12 03:46:22;;;;;;;;;18.00;12.75;;;;;-146.67;100.00;57155.34;5125029;28;8886;-78
2023/09/12 03:48:47;;;;;;;;;12.00;11.50;;;;;-146.67;100.00;57155.34;5106923;28;8797;-77
2023/09/12 03:51:13;;;;;;;;;13.75;12.75;;;;;-146.67;100.00;57155.34;5124520;28;11444;-78
2023/09/12 03:53:39;;;;;;;;;15.50;12.00;;;;;-146.67;100.00;57155.34;5125104;28;8974;-78
2023/09/12 03:56:04;;;;;;;;;11.25;11.25;;;;;-146.67;100.00;57155.34;5105963;28;8792;-78
2023/09/12 03:58:30;;;;;;;;;14.50;11.75;;;;;-146.67;100.00;57155.34;5124018;28;8809;-78
2023/09/12 04:00:55;;;;;;;;;11.00;9.25;;;;;-146.67;100.00;57155.34;5125007;28;8788;-78
2023/09/12 04:03:20;;;;;;;;;12.75;11.25;;;;;-146.67;100.00;57155.34;5125041;28;8795;-77
2023/09/12 04:05:47;;;;;;;;;11.00;9.75;;;;;-146.67;100.00;57155.34;5142474;27;8789;-77
2023/09/12 04:08:13;;;;;;;;;11.25;10.00;;;;;-146.67;100.00;57155.34;5127322;28;8761;-77
2023/09/12 04:10:38;;;;;;;;;12.50;11.00;;;;;-146.67;100.00;57155.34;5124531;28;10029;-78
2023/09/12 04:13:03;;;;;;;;;11.25;8.00;;;;;-146.67;100.00;57155.34;5124708;28;8800;-78
2023/09/12 04:15:29;;;;;;;;;9.25;8.50;;;;;-146.67;100.00;57155.34;5124434;28;8784;-78
2023/09/12 04:17:54;;;;;;;;;12.50;10.75;;;;;-146.67;100.00;57155.34;5124428;28;8847;-78
2023/09/12 04:20:19;;;;;;;;;13.00;10.75;;;;;-146.67;100.00;57155.34;5124436;28;8828;-78
2023/09/12 04:22:45;;;;;;;;;10.25;9.00;;;;;-146.67;100.00;57155.34;5124398;28;8769;-78
2023/09/12 04:25:11;;;;;;;;;9.50;8.25;;;;;-146.67;100.00;57155.34;5123714;28;8797;-78
2023/09/12 04:27:36;;;;;;;;;10.75;9.25;;;;;-146.67;100.00;57155.34;5124317;28;8784;-78
2023/09/12 04:30:02;;;;;;;;;10.25;9.75;;;;;-146.67;100.00;57155.34;5124606;28;8866;-78
2023/09/12 04:32:27;;;;;;;;;11.00;10.00;;;;;-146.67;100.00;57155.34;5106035;28;8797;-78
2023/09/12 04:34:52;;;;;;;;;9.50;7.75;;;;;-146.67;100.00;57155.34;5124048;28;8784;-78
2023/09/12 04:37:18;;;;;;;;;10.75;9.25;;;;;-146.67;100.00;57155.34;5106103;28;8903;-78
2023/09/12 04:39:44;;;;;;;;;12.75;8.50;;;;;-146.67;100.00;57155.34;5123784;28;8817;-78
2023/09/12 04:42:10;;;;;;;;;13.25;12.25;;;;;-146.67;100.00;57155.34;5105392;28;8807;-78
2023/09/12 04:44:36;;;;;;;;;13.75;10.00;;;;;-146.67;100.00;57155.34;5124322;28;9792;-77
2023/09/12 04:47:02;;;;;;;;;14.75;10.50;;;;;-146.67;100.00;57155.34;5123847;28;8769;-78
2023/09/12 04:49:28;;;;;;;;;12.00;7.25;;;;;-146.67;100.00;57155.34;5139353;27;10315;-78
2023/09/12 04:51:58;;;;;;;;;13.50;8.00;;;;;-146.67;100.00;57155.34;5104964;28;9986;-78
2023/09/12 04:54:23;;;;;;;;;15.75;11.75;;;;;-146.67;100.00;57155.34;5105458;28;8726;-78
2023/09/12 04:56:49;;;;;;;;;12.00;10.50;;;;;-146.67;100.00;57155.34;5123767;28;9977;-77
2023/09/12 04:59:14;;;;;;;;;18.00;12.75;;;;;-146.67;100.00;57155.34;5123432;28;8792;-77
2023/09/12 05:01:40;;;;;;;;;9.25;8.50;;;;;-146.67;100.00;57155.34;5121989;28;8800;-78
2023/09/12 05:04:05;;;;;;;;;12.75;11.25;;;;;-146.67;100.00;57155.34;5122049;28;8786;-79
2023/09/12 05:06:30;;;;;;;;;11.75;9.25;;;;;-146.67;100.00;57155.34;5104834;28;8850;-78
2023/09/12 05:08:56;;;;;;;;;8.00;7.00;;;;;-146.67;100.00;57155.34;5122924;28;8855;-78
2023/09/12 05:11:23;;;;;;;;;14.50;10.00;;;;;-146.67;100.00;57155.34;5125533;28;8788;-79
2023/09/12 05:13:48;;;;;;;;;12.00;11.25;;;;;-146.67;100.00;57155.34;5123351;28;8761;-80
2023/09/12 05:16:14;;;;;;;;;17.00;12.00;;;;;-146.67;100.00;57155.34;5123237;28;10051;-80
2023/09/12 05:18:39;;;;;;;;;11.25;9.50;;;;;-146.67;100.00;57155.34;5107722;28;10080;-79
2023/09/12 05:21:06;;;;;;;;;12.50;9.75;;;;;-146.67;100.00;57155.34;5106666;27;8814;-80
2023/09/12 05:23:33;;;;;;;;;17.75;13.25;;;;;-146.67;100.00;57155.34;5133587;27;8788;-78
2023/09/12 05:25:59;;;;;;;;;13.00;11.50;;;;;-146.67;100.00;57155.34;5107364;27;10038;-78
2023/09/12 05:28:25;;;;;;;;;15.00;12.00;;;;;-146.67;100.00;57155.34;5132981;27;10048;-78
2023/09/12 05:30:50;;;;;;;;;14.25;13.75;;;;;-146.67;100.00;57155.34;5120796;27;9959;-78
2023/09/12 05:33:16;;;;;;;;;13.75;12.00;;;;;-146.67;100.00;57155.34;5124509;27;8837;-79
2023/09/12 05:35:41;;;;;;;;;12.25;10.00;;;;;-146.67;100.00;57155.34;5129706;27;8839;-77
2023/09/12 05:38:06;;;;;;;;;11.25;9.25;;;;;-146.67;100.00;57155.34;5122974;28;8796;-79
2023/09/12 05:40:32;;;;;;;;;14.75;11.75;;;;;-146.67;100.00;57155.34;5126812;27;8909;-79
2023/09/12 05:42:57;;;;;;;;;13.00;13.00;;;;;-146.67;100.00;57155.34;5131632;27;8932;-79
2023/09/12 05:45:23;;;;;;;;;18.00;14.00;;;;;-146.67;100.00;57155.34;5122825;27;8808;-79
2023/09/12 05:47:50;;;;;;;;;14.50;12.50;;;;;-146.67;100.00;57155.34;5128187;27;9367;-77
2023/09/12 05:50:16;;;;;;;;;13.75;12.50;;;;;-146.67;100.00;57155.34;5118508;28;8717;-77
2023/09/12 05:52:42;;;;;;;;;14.50;12.50;;;;;-146.67;100.00;57155.34;5122473;28;9958;-76
2023/09/12 05:55:08;;;;;;;;;12.00;11.00;;;;;-146.67;100.00;57155.34;5100231;28;11408;-76
2023/09/12 05:57:34;;;;;;;;;5.50;5.50;;;;;-146.67;100.00;57155.34;5122015;28;10166;-76
2023/09/12 05:59:59;;;;;;;;;16.25;13.75;;;;;-146.67;100.00;57155.34;5122712;28;9975;-76
2023/09/12 06:02:25;;;;;;;;;16.00;13.50;;;;;-146.67;100.00;57155.34;5127927;27;8980;-76
2023/09/12 06:04:51;;;;;;;;;14.25;12.00;;;;;-146.67;100.00;57155.34;5130760;27;8769;-77
2023/09/12 06:07:16;;;;;;;;;15.50;13.00;;;;;-146.67;100.00;57155.34;5120856;27;8820;-76
2023/09/12 06:09:42;;;;;;;;;17.00;13.00;;;;;-146.67;100.00;57155.34;5103923;28;8885;-77
2023/09/12 06:12:07;;;;;;;;;19.00;12.50;;;;;-146.67;100.00;57155.34;5122395;28;8822;-76
2023/09/12 06:14:33;;;;;;;;;15.50;14.75;;;;;-146.67;100.00;57155.34;5122092;28;8912;-76
2023/09/12 06:16:59;;;;;;;;;18.50;15.00;;;;;-146.67;100.00;57155.34;5121429;28;8828;-76
2023/09/12 06:19:24;;;;;;;;;19.50;13.00;;;;;-146.67;100.00;57155.34;5122980;27;8831;-76
2023/09/12 06:21:50;;;;;;;;;18.75;13.75;;;;;-146.67;100.00;57155.34;5122047;28;9674;-76
2023/09/12 06:24:20;;;;;;;;;17.75;13.25;;;;;-146.67;100.00;57155.34;5120955;28;8897;-76
2023/09/12 06:26:46;;;;;;;;;16.00;14.75;;;;;-146.67;100.00;57155.34;5121498;28;8781;-77
2023/09/12 06:29:11;;;;;;;;;14.50;14.25;;;;;-146.67;100.00;57155.34;5124671;27;10204;-78
2023/09/12 06:31:37;;;;;;;;;16.25;14.50;;;;;-146.67;100.00;57155.34;5118584;28;8835;-76
2023/09/12 06:34:02;;;;;;;;;17.50;15.50;;;;;-146.67;100.00;57155.34;5121730;28;8807;-75
2023/09/12 06:36:31;;;;;;;;;14.25;12.00;;;;;-146.67;100.00;57155.34;5119997;28;10360;-75
2023/09/12 06:38:57;;;;;;;;;13.50;12.50;;;;;-146.67;100.00;57155.34;5121362;28;8835;-75
2023/09/12 06:41:23;;;;;;;;;17.00;14.25;;;;;-146.67;100.00;57155.34;5124119;28;9925;-76
2023/09/12 06:43:49;;;;;;;;;14.50;13.25;;;;;-146.67;100.00;57155.34;5123945;27;10007;-75
2023/09/12 06:46:18;;;;;;;;;16.75;12.00;;;;;-146.67;100.00;57155.34;5124992;28;8785;-76
2023/09/12 06:48:44;;;;;;;;;17.50;16.25;;;;;-146.67;100.00;57155.34;5123821;28;9932;-78
2023/09/12 06:51:11;;;;;;;;;16.50;14.50;;;;;-146.67;100.00;57155.34;5123789;28;10139;-77
2023/09/12 06:53:37;;;;;;;;;15.50;14.00;;;;;-146.67;100.00;57155.34;5124303;28;10326;-76
2023/09/12 06:56:03;;;;;;;;;11.75;9.25;;;;;-146.67;100.00;57155.34;5110090;28;10180;-76
2023/09/12 06:58:28;;;;;;;;;16.00;13.25;;;;;-146.67;100.00;57155.34;5102756;28;8799;-76
2023/09/12 07:00:54;;;;;;;;;17.50;14.50;;;;;-146.67;100.00;57155.34;5084301;28;9915;-77
2023/09/12 07:03:19;;;;;;;;;13.75;12.75;;;;;-146.67;100.00;57155.34;5086680;28;8849;-76
2023/09/12 07:05:45;;;;;;;;;6.50;5.50;;;;;-146.67;100.00;57155.34;5124906;27;9945;-76
2023/09/12 07:08:11;;;;;;;;;13.00;13.00;;;;;-146.67;100.00;57155.34;5145901;27;8783;-77
2023/09/12 07:10:36;;;;;;;;;15.00;13.75;;;;;-146.67;100.00;57155.34;5143358;27;8742;-77
2023/09/12 07:13:02;;;;;;;;;13.50;10.75;;;;;-146.67;100.00;57155.34;5122929;28;10209;-77
2023/09/12 07:15:28;;;;;;;;;17.25;13.00;;;;;-146.67;100.00;57155.34;5125518;28;8848;-77
2023/09/12 07:17:53;;;;;;;;;17.50;13.50;;;;;-146.67;100.00;57155.34;5125596;28;8793;-77
2023/09/12 07:20:19;;;;;;;;;20.00;16.00;;;;;-146.67;100.00;57155.34;5125172;28;8817;-77
2023/09/12 07:22:46;;;;;;;;;14.00;13.50;;;;;-146.67;100.00;57155.34;5107184;28;8753;-77
2023/09/12 07:25:14;;;;;;;;;16.00;10.50;;;;;-146.67;100.00;57155.34;5123990;28;10388;-77
2023/09/12 07:27:40;;;;;;;;;14.00;13.00;;;;;-146.67;100.00;57155.34;5124657;28;9965;-80
2023/09/12 07:30:07;;;;;;;;;16.25;14.00;;;;;-146.67;100.00;57155.34;5125008;28;10148;-80
2023/09/12 07:32:33;;;;;;;;;11.25;11.25;;;;;-146.67;100.00;57155.34;5125186;28;8753;-81
2023/09/12 07:34:58;;;;;;;;;18.00;15.25;;;;;-146.67;100.00;57155.34;5124949;28;10187;-81
2023/09/12 07:37:23;;;;;;;;;17.50;15.00;;;;;-146.67;100.00;57155.34;5124847;28;8785;-81
2023/09/12 07:39:49;;;;;;;;;13.00;11.75;;;;;-146.67;100.00;57155.34;5106649;28;8823;-81
2023/09/12 07:42:14;;;;;;;;;15.75;13.50;;;;;-146.67;100.00;57155.34;5123803;28;8770;-78
2023/09/12 07:44:39;;;;;;;;;13.00;11.50;;;;;-146.67;100.00;57155.34;5124297;28;8909;-81
2023/09/12 07:47:05;;;;;;;;;13.75;11.50;;;;;-146.67;100.00;57155.34;5128028;27;8805;-81
2023/09/12 07:49:30;;;;;;;;;12.25;11.50;;;;;-146.67;100.00;57155.34;5133072;27;8893;-82
2023/09/12 07:51:57;;;;;;;;;19.25;14.50;;;;;-146.67;100.00;57155.34;5134568;27;8884;-82
2023/09/12 07:54:22;;;;;;;;;13.00;12.00;;;;;-146.67;100.00;57155.34;5127551;27;10151;-82
2023/09/12 07:56:48;;;;;;;;;12.75;9.75;;;;;-146.67;100.00;57155.34;5126148;27;9879;-78
2023/09/12 07:59:14;;;;;;;;;14.25;11.75;;;;;-146.67;100.00;57155.34;5134340;27;9286;-78
2023/09/12 08:01:40;;;;;;;;;15.50;12.00;;;;;-146.67;100.00;57155.34;5117270;27;9038;-78
2023/09/12 08:04:05;;;;;;;;;12.75;12.00;;;;;-146.67;100.00;57155.34;5141754;27;9970;-79
2023/09/12 08:06:32;;;;;;;;;17.75;15.00;;;;;-146.67;100.00;57155.34;5144017;27;8849;-79
2023/09/12 08:08:57;;;;;;;;;10.25;10.25;;;;;-146.67;100.00;57155.34;5134809;27;8783;-81
2023/09/12 08:11:23;;;;;;;;;13.25;10.00;;;;;-146.67;100.00;57155.34;5127435;27;9547;-80
2023/09/12 08:13:49;;;;;;;;;15.00;13.00;;;;;-146.67;100.00;57155.34;5122216;28;9937;-79
2023/09/12 08:16:15;;;;;;;;;14.75;13.75;;;;;-146.67;100.00;57155.34;5124266;28;8713;-81
2023/09/12 08:18:41;;;;;;;;;14.25;12.25;;;;;-146.67;100.00;57155.34;5123619;28;9884;-80
2023/09/12 08:21:06;;;;;;;;;12.25;12.25;;;;;-146.67;100.00;57155.34;5123978;28;8805;-80
2023/09/12 08:23:31;;;;;;;;;16.00;11.75;;;;;-146.67;100.00;57155.34;5122577;28;10077;-80
2023/09/12 08:25:57;;;;;;;;;16.00;14.25;;;;;-146.67;100.00;57155.34;5127073;27;9601;-85
2023/09/12 08:28:22;;;;;;;;;13.50;12.50;;;;;-146.67;100.00;57155.34;5125540;27;8798;-78
2023/09/12 08:30:48;;;;;;;;;11.50;11.25;;;;;-146.67;100.00;57155.34;5125635;27;8804;-78
2023/09/12 08:33:13;;;;;;;;;13.50;13.25;;;;;-146.67;100.00;57155.34;5105321;28;10312;-79
2023/09/12 08:35:38;;;;;;;;;14.25;13.00;;;;;-146.67;100.00;57155.34;5135947;27;8968;-77
2023/09/12 08:38:04;;;;;;;;;14.00;11.25;;;;;-146.67;100.00;57155.34;5117210;28;8800;-76
2023/09/12 08:40:31;;;;;;;;;13.00;13.00;;;;;-146.67;100.00;57155.34;5123247;28;8794;-78
2023/09/12 08:42:59;;;;;;;;;13.50;13.00;;;;;-146.67;100.00;57155.34;5123227;28;8777;-79
2023/09/12 08:45:25;;;;;;;;;15.00;12.50;;;;;-146.67;100.00;57155.34;5104904;28;9942;-80
2023/09/12 08:47:53;;;;;;;;;13.50;11.75;;;;;-146.67;100.00;57155.34;5123210;28;9975;-81
2023/09/12 08:50:20;;;;;;;;;13.75;11.50;;;;;-146.67;100.00;57155.34;5104421;28;8811;-80
2023/09/12 08:52:47;;;;;;;;;12.75;9.00;;;;;-146.67;100.00;57155.34;5123493;28;10218;-82
2023/09/12 08:55:13;;;;;;;;;14.50;12.00;;;;;-146.67;100.00;57155.34;5121778;28;9926;-80
2023/09/12 08:57:41;;;;;;;;;15.75;12.75;;;;;-146.67;100.00;57155.34;5125241;27;9968;-81
2023/09/12 09:00:14;;;;;;;;;14.00;12.25;;;;;-146.67;100.00;57155.34;5130970;27;11450;-82
2023/09/12 09:02:43;;;;;;;;;11.75;10.00;;;;;-146.67;100.00;57155.34;5123300;28;10079;-77
2023/09/12 09:05:10;;;;;;;;;13.75;11.25;;;;;-146.67;100.00;57155.34;5121626;28;9803;-83
2023/09/12 09:07:41;;;;;;;;;20.75;11.00;;;;;-146.67;100.00;57155.34;5104852;28;10043;-80
2023/09/12 09:10:10;;;;;;;;;12.00;12.00;;;;;-146.67;100.00;57155.34;5104171;28;9770;-82
2023/09/12 09:12:39;;;;;;;;;11.75;11.25;;;;;-146.67;100.00;57155.34;5123065;28;9985;-93
2023/09/12 09:15:25;;;;;;;;;14.25;8.75;;;;;-146.67;100.00;57155.34;5122914;28;9994;-80
2023/09/12 09:17:52;;;;;;;;;13.75;10.75;;;;;-146.67;100.00;57155.34;5122951;28;9898;-79
2023/09/12 09:20:29;;;;;;;;;10.75;7.50;;;;;-146.67;100.00;57155.34;5104623;28;9785;-79
2023/09/12 09:23:05;;;;;;;;;10.75;10.75;;;;;-146.67;100.00;57155.34;5104845;28;10140;-80
2023/09/12 09:25:40;;;;;;;;;14.25;13.75;;;;;;;;5154243;27;13393;-77
2023/09/12 09:28:26;;;;;;;;;11.75;9.00;;;;;;;;5146301;27;9726;-76
2023/09/12 09:30:53;;;;;;;;;12.00;9.50;;;;;;;;5136365;27;9652;-77
2023/09/12 09:33:19;;;;;;;;;10.00;10.00;;;;;;;;5143429;27;9908;-76
2023/09/12 09:35:48;;;;;;;;;12.00;10.25;;;;;;;;5129806;27;9923;-76
2023/09/12 09:38:16;;;;;;;;;11.75;11.00;;;;;;;;5140177;27;8816;-76
2023/09/12 09:40:41;;;;;;;;;12.75;11.50;;;;;;;;5140208;27;9806;-76
2023/09/12 09:43:07;;;;;;;;;16.25;12.75;;;;;;;;5145430;27;10163;-76
2023/09/12 09:45:32;;;;;;;;;16.00;11.00;;;;;;;;5145277;27;8843;-76
2023/09/12 09:47:59;;;;;;;;;15.00;12.50;;;;;;;;5150936;27;8816;-76
2023/09/12 09:50:24;;;;;;;;;11.25;11.25;;;;;;;;5157939;27;8940;-76
2023/09/12 09:52:54;;;;;;;;;18.75;12.00;;;;;;;;5151519;27;10126;-76
2023/09/12 09:55:20;;;;;;;;;16.50;13.50;;;;;;;;5145066;27;8743;-76
2023/09/12 09:57:45;;;;;;;;;12.75;11.00;;;;;;;;5146499;27;9922;-76
2023/09/12 10:00:14;;;;;;;;;14.00;9.25;;;;;;;;5148020;27;8815;-76
2023/09/12 10:02:40;;;;;;;;;11.50;10.25;;;;;;;;5159492;27;8845;-76
2023/09/12 10:05:08;;;;;;;;;15.75;13.50;;;;;;;;5142641;27;9835;-76
2023/09/12 10:07:36;;;;;;;;;15.50;14.00;;;;;;;;5147102;27;8807;-76
2023/09/12 10:10:03;;;;;;;;;22.25;18.25;;;;;;;;5147543;27;10156;-76
2023/09/12 10:12:30;;;;;;;;;31.50;22.00;;;;;;;;5158974;27;10423;-76
2023/09/12 10:14:57;;;;;;;;;25.00;23.00;;;;;;;;5151414;27;10445;-76
2023/09/12 10:17:26;;;;;;;;;22.50;19.75;;;;;;;;5138845;27;10584;-76
2023/09/12 10:19:54;;;;;;;;;22.75;19.00;;;;;;;;5160020;27;10356;-76
2023/09/12 10:22:27;;;;;;;;;51.50;33.75;;;;;;;;5160124;27;10561;-76
2023/09/12 10:24:53;;;;;;;;;21.50;19.50;;;;;;;;5143555;27;10854;-76
2023/09/12 10:27:19;;;;;;;;;25.00;20.75;;;;;;;;5138564;27;10472;-76
2023/09/12 10:29:47;;;;;;;;;22.25;16.00;;;;;;;;5130910;27;8836;-75
2023/09/12 10:32:14;;;;;;;;;26.25;21.00;;;;;;;;5139167;27;8792;-75
2023/09/12 10:34:42;;;;;;;;;23.50;17.50;;;;;;;;5142453;27;10412;-76
2023/09/12 10:37:07;;;;;;;;;20.25;18.00;;;;;;;;5132825;27;10484;-83
2023/09/12 10:39:34;;;;;;;;;18.50;15.00;;;;;;;;5140238;27;11301;-76
2023/09/12 10:41:59;;;;;;;;;20.25;16.75;;;;;;;;5131868;27;8830;-81
2023/09/12 10:44:24;;;;;;;;;24.50;18.25;;;;;;;;5128907;27;10956;-87
2023/09/12 10:46:51;;;;;;;;;18.00;16.75;;;;;;;;5129570;27;8818;-77
2023/09/12 10:49:17;;;;;;;;;27.25;23.00;;;;;;;;5133684;27;8739;-79
2023/09/12 10:51:45;;;;;;;;;27.25;19.75;;;;;;;;5135365;27;10867;-78
2023/09/12 10:54:23;;;;;;;;;20.50;18.50;;;;;;;;5132490;27;8737;-83
2023/09/12 10:57:04;;;;;;;;;22.25;16.75;;;;;;;;5139567;27;10399;-75
2023/09/12 10:59:35;;;;;;;;;23.75;22.75;;;;;;;;5144884;27;10596;-76
2023/09/12 11:02:18;;;;;;;;;20.50;20.25;;;;;;;;5145235;27;10688;-74
2023/09/12 11:04:44;;;;;;;;;25.25;20.25;;;;;;;;5145679;27;10251;-74
2023/09/12 11:07:28;;;;;;;;;24.50;23.00;;;;;;;;5141872;27;10490;-75
2023/09/12 11:10:15;;;;;;;;;18.25;18.25;;;;;;;;5144888;27;9039;-72
2023/09/12 11:12:40;;;;;;;;;24.00;21.00;;;;;;;;5144866;27;10242;-76
2023/09/12 11:15:06;;;;;;;;;18.50;17.25;;;;;;;;5142430;27;10072;-74
2023/09/12 11:17:37;;;;;;;;;22.00;16.00;;;;;;;;5135399;27;8792;-76
2023/09/12 11:20:09;;;;;;;;;17.50;16.25;;;;;;;;5133428;27;8919;-75
2023/09/12 11:22:35;;;;;;;;;12.50;10.00;;;;;;;;5142101;27;11176;-76
2023/09/12 11:25:01;;;;;;;;;12.00;10.75;;;;;;;;5141694;27;10093;-76
2023/09/12 11:27:43;;;;;;;;;13.50;8.50;;;;;;;;5130342;27;8807;-75
2023/09/12 11:30:09;;;;;;;;;10.25;9.00;;;;;;;;5124491;27;8772;-75
2023/09/12 11:32:37;;;;;;;;;13.50;10.50;;;;;;;;5124063;27;10215;-75